Time;durP1;ratioP1;P1;durP2;ratioP2;P2;SDS_P1;SDS_P2;PMS_P1;PMS_P2;Temp;Humidity;BMP_temperature;BMP_pressure;BME280_temperature;BME280_humidity;BME280_pressure;Samples;Min_cycle;Max_cycle;Signal;HPM_P1;HPM_P2
2023/04/13 00:00:24;;;;;;;2.35;0.88;;;;;;;4.91;88.68;99402.63;4919302;29;20039;-77
2023/04/13 00:02:55;;;;;;;3.35;0.90;;;;;;;4.85;88.20;99391.44;4928486;29;20039;-78
2023/04/13 00:05:22;;;;;;;3.28;1.10;;;;;;;4.84;89.41;99383.66;4912222;29;20500;-77
2023/04/13 00:07:48;;;;;;;4.97;1.15;;;;;;;4.83;90.04;99384.56;4918265;29;20432;-77
2023/04/13 00:10:17;;;;;;;1.92;1.10;;;;;;;4.82;90.07;99390.63;4919555;29;20036;-77
2023/04/13 00:12:46;;;;;;;2.03;1.10;;;;;;;4.81;90.18;99381.97;4941876;29;20031;-76
2023/04/13 00:15:16;;;;;;;3.30;1.20;;;;;;;4.83;89.62;99377.63;4920082;29;20460;-78
2023/04/13 00:17:42;;;;;;;2.23;1.10;;;;;;;4.90;89.31;99388.81;4923081;29;20055;-78
2023/04/13 00:20:13;;;;;;;2.65;1.33;;;;;;;4.92;89.89;99376.66;4937221;29;20292;-72
2023/04/13 00:22:42;;;;;;;4.93;1.23;;;;;;;4.91;90.34;99379.28;4941269;29;20044;-77
2023/04/13 00:25:10;;;;;;;2.03;1.05;;;;;;;4.94;90.60;99381.81;5064653;23;20090;-73
2023/04/13 00:27:38;;;;;;;2.60;1.00;;;;;;;4.95;90.50;99368.81;5229320;23;20109;-74
2023/04/13 00:30:06;;;;;;;2.50;1.00;;;;;;;5.02;90.43;99364.41;5035832;23;20054;-74
2023/04/13 00:32:32;;;;;;;3.67;1.17;;;;;;;5.09;88.56;99354.81;5507971;23;20533;-72
2023/04/13 00:34:57;;;;;;;1.85;1.00;;;;;;;5.15;88.56;99360.78;5273109;23;20025;-68
2023/04/13 00:37:22;;;;;;;4.15;1.63;;;;;;;5.23;88.93;99359.81;5286199;23;20101;-69
2023/04/13 00:39:49;;;;;;;4.32;1.55;;;;;;;5.26;89.21;99362.34;5196468;23;20062;-72
2023/04/13 00:44:59;;;;;;;3.75;1.23;;;;;;;5.31;89.67;99373.56;5530507;23;20046;-68
2023/04/13 00:50:02;;;;;;;5.18;1.33;;;;;;;5.33;90.54;99361.41;5175860;23;20115;-77
2023/04/13 00:52:38;;;;;;;7.03;1.48;;;;;;;5.30;90.33;99357.13;5343986;23;20060;31
2023/04/13 00:55:05;;;;;;;5.30;1.27;;;;;;;5.30;91.13;99364.03;5201515;23;20118;-71
2023/04/13 00:57:32;;;;;;;4.47;1.55;;;;;;;5.27;91.60;99377.94;5171087;23;20013;-71
2023/04/13 01:05:11;;;;;;;5.53;1.60;;;;;;;5.26;91.84;99359.75;4599088;23;20103;-75
2023/04/13 01:22:03;;;;;;;5.43;1.60;;;;;;;5.44;90.78;99359.50;4953649;28;20054;-70
2023/04/13 01:24:44;;;;;;;3.83;1.52;;;;;;;5.45;90.81;99358.63;4922300;29;20392;-71
2023/04/13 01:27:15;;;;;;;4.82;1.63;;;;;;;5.43;91.67;99368.22;4937898;29;20039;-71
2023/04/13 01:32:44;;;;;;;2.90;1.02;;;;;;;5.50;90.37;99369.84;4955138;29;20399;-71
2023/04/13 01:35:13;;;;;;;6.05;1.40;;;;;;;5.52;90.89;99372.41;4937133;29;20118;-71
2023/04/13 01:37:42;;;;;;;3.17;1.17;;;;;;;5.53;91.32;99369.78;4921945;29;20058;-71
2023/04/13 01:40:11;;;;;;;3.15;1.10;;;;;;;5.53;91.21;99374.97;4936913;29;20035;-71
2023/04/13 01:42:41;;;;;;;6.03;1.45;;;;;;;5.55;91.10;99370.59;4929300;29;20126;-71
2023/04/13 01:45:14;;;;;;;5.88;1.30;;;;;;;5.57;91.71;99377.53;4936464;29;20035;-71
2023/04/13 01:47:49;;;;;;;5.60;1.35;;;;;;;5.60;91.23;99385.28;4936927;29;20134;-76
2023/04/13 01:50:24;;;;;;;3.55;1.00;;;;;;;5.60;91.38;99380.06;4936989;29;20031;-77
2023/04/13 01:52:53;;;;;;;4.72;1.10;;;;;;;5.60;91.68;99390.47;4936990;29;20150;-77
2023/04/13 01:55:21;;;;;;;4.80;1.13;;;;;;;5.61;91.79;99402.59;4936679;29;20047;-77
2023/04/13 01:57:48;;;;;;;4.28;1.27;;;;;;;5.59;92.50;99400.03;4937071;29;20035;-78
2023/04/13 02:00:17;;;;;;;7.97;1.30;;;;;;;5.58;93.11;99405.25;4920916;29;20035;-77
2023/04/13 02:02:43;;;;;;;4.70;1.65;;;;;;;5.55;93.92;99411.34;4951570;28;20035;-76
2023/04/13 02:05:09;;;;;;;4.78;1.20;;;;;;;5.53;94.24;99413.97;4921532;29;20039;-77
2023/04/13 02:07:38;;;;;;;6.22;1.33;;;;;;;5.52;94.45;99408.78;4937066;29;20035;-76
2023/04/13 02:10:05;;;;;;;5.93;1.33;;;;;;;5.50;94.25;99406.22;4939465;28;20058;-78
2023/04/13 02:12:32;;;;;;;6.82;1.70;;;;;;;5.46;94.89;99417.53;4939956;28;20367;-76
2023/04/13 02:14:58;;;;;;;6.07;1.48;;;;;;;5.48;95.13;99423.53;4939295;29;20067;-71
2023/04/13 02:17:24;;;;;;;5.82;1.65;;;;;;;5.45;95.25;99423.59;4919260;29;21007;-72
2023/04/13 02:19:50;;;;;;;6.72;2.10;;;;;;;5.45;96.54;99433.97;4920980;29;20055;-71
2023/04/13 02:22:15;;;;;;;6.05;1.20;;;;;;;5.43;96.22;99435.75;4916069;29;20105;-72
2023/04/13 02:24:41;;;;;;;8.57;1.55;;;;;;;5.45;96.42;99436.56;4928913;29;20039;-71
2023/04/13 02:27:07;;;;;;;6.70;1.73;;;;;;;5.45;96.01;99440.94;4927686;29;20043;-71
2023/04/13 02:29:34;;;;;;;5.53;1.33;;;;;;;5.43;96.24;99448.75;4954009;28;20348;-72
2023/04/13 02:32:00;;;;;;;6.43;1.98;;;;;;;5.46;96.06;99450.41;4920734;29;20503;-71
2023/04/13 02:34:26;;;;;;;6.63;1.33;;;;;;;5.46;95.88;99455.59;4921226;29;20035;-71
2023/04/13 02:36:52;;;;;;;5.78;1.20;;;;;;;5.43;95.84;99446.16;4921246;29;20074;-71
2023/04/13 02:39:18;;;;;;;4.00;1.27;;;;;;;5.45;96.24;99465.16;4921010;29;20136;-72
2023/04/13 02:41:43;;;;;;;4.07;1.20;;;;;;;5.45;95.65;99467.75;4936925;29;20187;-72
2023/04/13 02:44:10;;;;;;;8.15;1.52;;;;;;;5.44;95.37;99463.44;4935939;29;20047;-72
2023/04/13 02:46:35;;;;;;;6.45;1.52;;;;;;;5.43;95.51;99464.31;4926195;29;20397;-71
2023/04/13 02:49:01;;;;;;;6.25;1.73;;;;;;;5.44;95.17;99466.03;4949705;29;20042;-71
2023/04/13 02:51:26;;;;;;;5.22;1.40;;;;;;;5.46;95.39;99482.47;4920750;29;20484;-71
2023/04/13 02:53:54;;;;;;;8.38;1.88;;;;;;;5.46;95.57;99479.88;4936484;29;20561;-71
2023/04/13 02:56:21;;;;;;;5.28;2.03;;;;;;;5.48;95.58;99498.03;4921166;29;20102;-71
2023/04/13 02:58:47;;;;;;;6.22;1.88;;;;;;;5.50;95.44;99499.75;4940152;29;20539;-72
2023/04/13 03:01:12;;;;;;;9.90;2.40;;;;;;;5.52;95.66;99503.19;4923587;29;20134;-71
2023/04/13 03:03:40;;;;;;;5.72;1.98;;;;;;;5.51;95.70;99509.25;4924083;29;20106;-72
2023/04/13 03:06:08;;;;;;;8.98;2.42;;;;;;;5.49;96.02;99516.22;4924485;29;20488;-71
2023/04/13 03:08:33;;;;;;;5.47;2.20;;;;;;;5.49;96.15;99515.34;4924093;29;20108;-71
2023/04/13 03:11:00;;;;;;;6.85;2.88;;;;;;;5.49;96.35;99523.16;4923660;29;20051;-71
2023/04/13 03:13:26;;;;;;;6.80;2.45;;;;;;;5.48;96.40;99532.66;4940029;29;20039;-71
2023/04/13 03:15:51;;;;;;;7.70;2.50;;;;;;;5.43;96.67;99534.47;4923856;29;20051;-70
2023/04/13 03:18:17;;;;;;;6.50;2.30;;;;;;;5.41;96.22;99533.63;4923440;29;20381;-71
2023/04/13 03:20:43;;;;;;;4.32;1.73;;;;;;;5.36;95.69;99532.84;4923237;29;20063;-71
2023/04/13 03:23:09;;;;;;;3.95;2.22;;;;;;;5.33;95.89;99527.63;4939732;29;20039;-71
2023/04/13 03:25:35;;;;;;;7.57;1.95;;;;;;;5.34;96.29;99535.44;4915964;29;20126;-71
2023/04/13 03:28:00;;;;;;;6.50;1.95;;;;;;;5.35;96.24;99544.09;4919745;29;20135;-77
2023/04/13 03:30:27;;;;;;;6.03;2.30;;;;;;;5.34;96.01;99545.84;4939034;29;20032;-77
2023/04/13 03:32:52;;;;;;;2.35;1.70;;;;;;;5.30;96.17;99546.75;4923601;29;20058;-77
2023/04/13 03:35:20;;;;;;;4.97;2.00;;;;;;;5.32;95.73;99555.38;4923091;29;20047;-77
2023/04/13 03:37:45;;;;;;;5.80;2.03;;;;;;;5.28;94.32;99561.47;4923680;29;20404;-76
2023/04/13 03:40:11;;;;;;;3.47;1.92;;;;;;;5.22;94.01;99558.94;4939217;29;20049;-77
2023/04/13 03:42:37;;;;;;;3.33;1.60;;;;;;;5.19;93.28;99572.81;4939097;29;20049;-71
2023/04/13 03:45:03;;;;;;;2.78;1.80;;;;;;;5.12;92.58;99575.50;4939043;29;20039;-71
2023/04/13 03:47:30;;;;;;;4.88;1.80;;;;;;;5.11;93.06;99573.78;4923166;29;20047;-71
2023/04/13 03:49:56;;;;;;;3.22;2.13;;;;;;;5.08;93.27;99579.00;4919650;29;20055;-70
2023/04/13 03:52:21;;;;;;;6.38;2.65;;;;;;;5.03;93.54;99579.06;4938326;29;20043;-71
2023/04/13 03:54:46;;;;;;;5.80;2.63;;;;;;;4.98;93.45;99586.00;4936883;29;20039;-71
2023/04/13 03:57:12;;;;;;;7.75;2.80;;;;;;;4.96;94.00;99582.56;4921783;29;20562;-71
2023/04/13 03:59:37;;;;;;;8.90;2.85;;;;;;;4.93;94.27;99593.84;4939087;29;20051;-71
2023/04/13 04:02:05;;;;;;;7.53;2.92;;;;;;;4.90;94.60;99596.47;4934503;28;20126;-71
2023/04/13 04:04:31;;;;;;;7.57;3.33;;;;;;;4.86;94.96;99599.97;4953458;29;20078;-70
2023/04/13 04:06:57;;;;;;;5.80;3.05;;;;;;;4.83;94.68;99598.25;4922755;29;20050;-71
2023/04/13 04:09:23;;;;;;;7.47;3.35;;;;;;;4.82;95.30;99609.50;4937188;29;20039;-71
2023/04/13 04:11:49;;;;;;;8.50;4.18;;;;;;;4.82;95.61;99621.63;4923141;29;20537;-70
2023/04/13 04:14:14;;;;;;;8.40;3.88;;;;;;;4.81;96.27;99612.09;4922278;29;20039;-70
2023/04/13 04:16:40;;;;;;;8.45;3.78;;;;;;;4.83;96.44;99615.56;4938393;29;20396;-71
2023/04/13 04:19:05;;;;;;;10.95;4.38;;;;;;;4.84;96.14;99620.75;4922778;29;20043;-70
2023/04/13 04:21:34;;;;;;;8.45;4.85;;;;;;;4.83;96.55;99623.34;4922184;29;20087;-70
2023/04/13 04:24:00;;;;;;;8.55;4.93;;;;;;;4.83;96.46;99631.13;4938173;28;20051;-71
2023/04/13 04:26:27;;;;;;;10.38;5.50;;;;;;;4.82;96.64;99640.63;4906561;29;20518;-70
2023/04/13 04:29:00;;;;;;;9.63;5.57;;;;;;;4.84;96.72;99631.13;4922571;29;20039;-71
2023/04/13 04:31:30;;;;;;;10.57;5.53;;;;;;;4.85;97.46;99638.03;4922988;29;20501;-71
2023/04/13 04:33:56;;;;;;;10.75;5.40;;;;;;;4.84;96.73;99638.91;4937963;29;20031;-70
2023/04/13 04:36:23;;;;;;;9.45;5.38;;;;;;;4.83;96.97;99637.19;4922296;29;20575;-70
2023/04/13 04:38:50;;;;;;;12.95;5.22;;;;;;;4.83;96.83;99639.78;4938120;29;20046;-71
2023/04/13 04:41:19;;;;;;;10.52;5.28;;;;;;;4.81;97.04;99654.50;4936928;28;20086;-71
2023/04/13 04:43:45;;;;;;;13.02;5.28;;;;;;;4.79;96.87;99663.19;4921440;28;20058;-70
2023/04/13 04:46:14;;;;;;;10.90;4.68;;;;;;;4.78;96.70;99659.69;4924717;29;20031;-70
2023/04/13 04:48:40;;;;;;;9.38;4.97;;;;;;;4.77;96.85;99668.38;4922363;29;20134;-71
2023/04/13 04:51:07;;;;;;;8.35;4.43;;;;;;;4.77;97.19;99670.09;4921878;29;20066;-70
2023/04/13 04:53:33;;;;;;;11.25;5.25;;;;;;;4.74;97.20;99668.41;4937740;29;20039;-70
2023/04/13 04:55:58;;;;;;;10.40;4.90;;;;;;;4.71;96.83;99683.13;4905619;28;20375;-70
2023/04/13 04:58:24;;;;;;;11.85;4.88;;;;;;;4.68;96.58;99673.63;4921758;29;20035;-71
2023/04/13 05:00:51;;;;;;;10.82;5.03;;;;;;;4.67;96.68;99683.16;4921657;29;20144;-71
2023/04/13 05:03:16;;;;;;;9.77;4.55;;;;;;;4.68;96.77;99681.41;4918858;29;20388;-71
2023/04/13 05:05:42;;;;;;;9.48;5.25;;;;;;;4.70;96.64;99687.47;4928855;29;20043;-71
2023/04/13 05:08:08;;;;;;;14.50;5.32;;;;;;;4.68;96.92;99678.81;4921878;29;20544;-71
2023/04/13 05:10:34;;;;;;;11.55;5.18;;;;;;;4.73;96.60;99691.78;4920898;29;20039;-71
2023/04/13 05:13:00;;;;;;;10.23;5.22;;;;;;;4.75;96.55;99690.88;4921336;28;20046;-71
2023/04/13 05:15:26;;;;;;;11.05;5.90;;;;;;;4.80;96.59;99691.72;4937307;29;20403;-71
2023/04/13 05:17:52;;;;;;;12.82;6.50;;;;;;;4.83;96.67;99694.28;4953757;28;20431;-71
2023/04/13 05:20:18;;;;;;;12.88;6.25;;;;;;;4.89;96.22;99692.53;4921215;29;20050;-71
2023/04/13 05:22:43;;;;;;;10.82;6.20;;;;;;;4.91;96.67;99695.97;4921124;29;20047;-71
2023/04/13 05:25:09;;;;;;;10.93;6.75;;;;;;;4.96;96.48;99694.22;4918490;29;20555;-70
2023/04/13 05:27:35;;;;;;;12.98;6.05;;;;;;;5.00;96.60;99695.91;4920834;29;20047;-71
2023/04/13 05:30:02;;;;;;;11.55;6.32;;;;;;;5.05;96.28;99696.72;4920035;28;20050;-71
2023/04/13 05:32:27;;;;;;;13.55;6.47;;;;;;;5.12;96.37;99706.19;4920801;29;20407;-71
2023/04/13 05:34:53;;;;;;;12.38;6.65;;;;;;;5.17;96.26;99703.56;4937049;29;20133;-71
2023/04/13 05:37:19;;;;;;;14.38;7.00;;;;;;;5.25;95.67;99706.97;4936858;29;20502;-71
2023/04/13 05:39:45;;;;;;;13.35;6.63;;;;;;;5.32;96.02;99715.56;4921372;29;20043;-71
2023/04/13 05:42:11;;;;;;;11.30;6.47;;;;;;;5.36;95.59;99720.72;4921555;29;20491;-70
2023/04/13 05:44:36;;;;;;;13.25;7.32;;;;;;;5.52;96.21;99721.44;4921352;29;20039;-71
2023/04/13 05:47:02;;;;;;;15.65;6.75;;;;;;;5.62;95.54;99714.44;4929965;28;20035;-71
2023/04/13 05:49:28;;;;;;;9.73;5.95;;;;;;;5.69;95.12;99717.84;4918364;29;20492;-71
2023/04/13 05:51:53;;;;;;;11.88;5.68;;;;;;;5.73;94.27;99724.72;4923867;29;20075;-71
2023/04/13 05:54:19;;;;;;;10.35;5.28;;;;;;;5.80;94.11;99725.53;4914425;29;20050;-70
2023/04/13 05:56:46;;;;;;;7.95;4.93;;;;;;;5.87;94.27;99741.03;4918873;29;20183;-71
2023/04/13 05:59:12;;;;;;;7.45;4.20;;;;;;;5.95;93.47;99737.50;4955463;28;20501;-71
2023/04/13 06:01:37;;;;;;;11.63;3.78;;;;;;;5.95;91.91;99750.50;4939190;29;20039;-71
2023/04/13 06:04:02;;;;;;;9.98;3.38;;;;;;;5.98;92.45;99750.53;4921108;29;20119;-70
2023/04/13 06:06:29;;;;;;;8.20;3.30;;;;;;;6.00;92.91;99761.75;4920727;29;20094;-70
2023/04/13 06:08:55;;;;;;;8.50;3.55;;;;;;;6.05;92.54;99763.44;4920677;29;20074;-70
2023/04/13 06:11:21;;;;;;;8.05;3.25;;;;;;;6.04;91.61;99771.25;4937232;29;20046;-70
2023/04/13 06:13:47;;;;;;;4.82;2.95;;;;;;;6.04;92.49;99782.50;4936326;29;20043;-71
2023/04/13 06:16:12;;;;;;;6.82;2.90;;;;;;;5.99;91.62;99783.44;4921024;29;20039;-72
2023/04/13 06:18:37;;;;;;;8.13;2.70;;;;;;;5.97;91.61;99787.75;4920395;29;20403;-71
2023/04/13 06:21:03;;;;;;;7.68;2.70;;;;;;;5.95;92.08;99800.78;4921907;29;20043;-71
2023/04/13 06:23:29;;;;;;;4.22;2.38;;;;;;;5.93;92.70;99799.06;4932420;29;20192;-72
2023/04/13 06:25:55;;;;;;;6.30;2.83;;;;;;;5.92;92.45;99807.72;4918500;29;20050;-76
2023/04/13 06:28:21;;;;;;;7.25;2.75;;;;;;;5.93;92.73;99804.25;4911008;29;20142;-76
2023/04/13 06:30:46;;;;;;;6.50;2.70;;;;;;;5.94;92.83;99806.00;4906129;28;20154;-76
2023/04/13 06:33:14;;;;;;;5.75;2.90;;;;;;;5.96;93.56;99810.31;4914972;29;20094;-77
2023/04/13 06:35:39;;;;;;;6.35;3.22;;;;;;;5.98;92.98;99818.13;4931003;28;20045;-77
2023/04/13 06:38:06;;;;;;;9.30;3.60;;;;;;;5.99;92.76;99815.50;4913045;29;20047;-78
2023/04/13 06:40:32;;;;;;;8.43;3.60;;;;;;;6.00;92.75;99819.81;4923037;29;20074;-77
2023/04/13 06:42:58;;;;;;;10.93;4.22;;;;;;;6.03;93.53;99822.41;4934511;28;20039;-76
2023/04/13 06:45:23;;;;;;;9.77;3.75;;;;;;;6.04;92.51;99828.47;4947200;28;20059;-78
2023/04/13 06:47:55;;;;;;;9.65;3.63;;;;;;;6.00;92.87;99824.16;4923639;29;20039;-77
2023/04/13 06:50:21;;;;;;;5.55;3.17;;;;;;;6.05;92.88;99841.44;4918180;29;20039;-77
2023/04/13 06:52:47;;;;;;;8.02;4.10;;;;;;;6.04;93.44;99838.88;4922069;29;20039;-76
2023/04/13 06:55:13;;;;;;;8.18;3.58;;;;;;;6.05;93.21;99838.00;4935848;28;20046;-78
2023/04/13 06:57:39;;;;;;;8.88;3.50;;;;;;;6.09;93.79;99837.06;4922638;28;20488;-72
2023/04/13 07:00:07;;;;;;;7.40;3.42;;;;;;;6.13;93.64;99854.38;4938043;28;20050;-71
2023/04/13 07:02:35;;;;;;;8.15;3.65;;;;;;;6.20;93.75;99839.59;4932224;28;20061;-71
2023/04/13 07:05:01;;;;;;;6.90;3.47;;;;;;;6.21;93.96;99852.56;4944051;28;20034;-71
2023/04/13 07:07:27;;;;;;;9.82;3.70;;;;;;;6.23;93.22;99852.56;4929321;29;20407;-70
2023/04/13 07:09:52;;;;;;;9.10;3.83;;;;;;;6.24;92.72;99849.09;4945037;28;20536;-71
2023/04/13 07:12:18;;;;;;;6.88;3.28;;;;;;;6.27;92.77;99867.25;4929016;29;20043;-71
2023/04/13 07:14:47;;;;;;;10.52;3.90;;;;;;;6.29;93.39;99865.50;4916172;28;20488;-71
2023/04/13 07:17:13;;;;;;;7.93;3.95;;;;;;;6.29;92.48;99867.25;4945054;28;20031;-71
2023/04/13 07:19:45;;;;;;;9.73;4.38;;;;;;;6.31;92.64;99874.16;4910021;28;20499;-70
2023/04/13 07:22:13;;;;;;;8.40;4.07;;;;;;;6.30;92.11;99876.78;4951472;28;20046;-71
2023/04/13 07:24:42;;;;;;;11.15;4.00;;;;;;;6.35;91.87;99885.38;4936129;28;20390;-71
2023/04/13 07:27:07;;;;;;;10.85;3.90;;;;;;;6.37;92.77;99883.66;4945065;28;20113;-71
2023/04/13 07:29:33;;;;;;;8.13;3.28;;;;;;;6.45;92.17;99892.25;4906566;29;20040;-71
2023/04/13 07:32:01;;;;;;;13.13;4.05;;;;;;;6.51;91.73;99875.72;4934632;28;20891;-71
2023/04/13 07:34:27;;;;;;;7.90;3.50;;;;;;;6.56;91.24;99892.97;4934900;28;20403;-71
2023/04/13 07:36:53;;;;;;;10.30;4.13;;;;;;;6.67;91.75;99899.84;4938558;28;20505;-70
2023/04/13 07:39:19;;;;;;;11.18;4.10;;;;;;;6.73;91.53;99907.56;4921612;29;20035;-70
2023/04/13 07:41:46;;;;;;;11.75;4.40;;;;;;;6.78;92.13;99905.78;4940659;28;20138;-71
2023/04/13 07:44:13;;;;;;;13.30;4.35;;;;;;;6.87;92.37;99903.06;4912834;29;20074;-70
2023/04/13 07:46:39;;;;;;;9.45;4.07;;;;;;;6.93;91.45;99912.56;4929491;28;20047;-71
2023/04/13 07:49:05;;;;;;;10.23;4.13;;;;;;;7.07;91.71;99917.59;4943394;28;20040;-71
2023/04/13 07:51:33;;;;;;;9.77;4.55;;;;;;;7.11;90.33;99914.94;4920833;29;20070;-70
2023/04/13 07:53:59;;;;;;;11.73;4.20;;;;;;;7.21;90.63;99914.81;4954039;28;20039;-71
2023/04/13 07:56:25;;;;;;;12.57;4.72;;;;;;;7.28;89.46;99921.66;4953642;28;20095;-70
2023/04/13 07:58:50;;;;;;;8.90;4.40;;;;;;;7.38;89.36;99925.03;4929994;28;20118;-71
2023/04/13 08:01:16;;;;;;;12.15;4.50;;;;;;;7.46;88.11;99923.19;4930258;28;20049;-70
2023/04/13 08:03:41;;;;;;;11.43;4.35;;;;;;;7.61;90.03;99929.91;4915353;29;20754;-70
2023/04/13 08:06:08;;;;;;;10.05;4.40;;;;;;;7.70;89.70;99945.44;4951319;28;20062;-70
2023/04/13 08:08:33;;;;;;;9.40;3.90;;;;;;;7.75;88.87;99943.63;4944325;28;20161;-71
2023/04/13 08:10:59;;;;;;;15.55;4.22;;;;;;;7.83;88.35;99946.13;4949328;28;20535;-70
2023/04/13 08:13:27;;;;;;;13.07;4.15;;;;;;;7.89;87.62;99946.03;4935292;28;20039;-71
2023/04/13 08:15:55;;;;;;;12.60;4.50;;;;;;;8.04;88.60;99949.28;4927871;28;20130;-71
2023/04/13 08:18:25;;;;;;;12.95;4.40;;;;;;;8.17;87.36;99960.41;4938277;29;20047;-70
2023/04/13 08:20:51;;;;;;;10.25;3.72;;;;;;;8.21;86.44;99967.28;4931254;28;20062;-70
2023/04/13 08:23:17;;;;;;;14.25;3.85;;;;;;;8.29;85.52;99968.88;4925638;29;20036;-71
2023/04/13 08:26:56;;;;;;;13.40;4.28;;;;;;;8.36;84.12;99972.28;4932412;28;20033;-70
2023/04/13 08:29:27;;;;;;;15.25;4.07;;;;;;;8.51;82.17;99981.63;4934952;28;20477;-70
2023/04/13 08:31:53;;;;;;;15.48;4.72;;;;;;;8.61;81.83;99983.16;4908374;29;20039;-69
2023/04/13 08:34:19;;;;;;;14.98;3.78;;;;;;;8.66;80.79;99989.19;4919629;29;20539;-69
2023/04/13 08:36:45;;;;;;;10.30;3.40;;;;;;;8.75;81.30;99990.78;4913114;29;20039;-70
2023/04/13 08:39:10;;;;;;;14.07;4.22;;;;;;;8.77;81.94;100003.81;4911925;29;20043;-70
2023/04/13 08:41:39;;;;;;;12.23;3.30;;;;;;;8.72;78.59;100003.00;4900531;28;20035;-71
2023/04/13 08:44:06;;;;;;;13.88;3.42;;;;;;;8.74;79.66;100002.09;4928313;29;20043;-71
2023/04/13 08:46:35;;;;;;;15.52;4.35;;;;;;;8.75;79.51;100002.94;4900951;29;20058;-70
2023/04/13 08:49:02;;;;;;;15.52;3.58;;;;;;;8.75;79.60;100010.78;4928518;29;20433;-71
2023/04/13 08:51:30;;;;;;;14.40;3.78;;;;;;;8.68;79.70;100015.28;4948078;29;20336;-70
2023/04/13 08:53:58;;;;;;;16.63;3.45;;;;;;;8.61;76.70;100024.97;4926112;28;20622;-71
2023/04/13 08:56:23;;;;;;;14.70;3.47;;;;;;;8.59;75.76;100031.97;4931663;29;20539;-71
2023/04/13 08:58:57;;;;;;;14.15;3.78;;;;;;;8.63;78.39;100033.66;4918565;29;20050;-71
2023/04/13 09:01:25;;;;;;;14.45;4.22;;;;;;;8.75;78.52;100039.53;4944994;28;20410;-75
2023/04/13 09:03:56;;;;;;;15.38;3.70;;;;;;;8.81;78.96;100037.69;4896815;28;20043;-76
2023/04/13 09:06:33;;;;;;;14.77;3.75;;;;;;;8.91;77.78;100050.59;4916133;28;20039;-76
2023/04/13 09:09:04;;;;;;;15.77;3.00;;;;;;;8.84;75.55;100047.22;4938403;29;20050;-70
2023/04/13 09:11:30;;;;;;;18.77;3.30;;;;;;;9.01;76.98;100053.00;4939550;28;20541;-71
2023/04/13 09:13:56;;;;;;;10.65;3.10;;;;;;;9.21;75.35;100061.38;4947014;28;20502;-71
2023/04/13 09:16:21;;;;;;;17.63;3.60;;;;;;;9.59;78.01;100063.25;4946842;28;20043;-76
2023/04/13 09:18:56;;;;;;;16.13;3.38;;;;;;;9.90;77.21;100065.22;4940738;28;20058;-76
2023/04/13 09:21:34;;;;;;;16.20;3.95;;;;;;;10.31;78.87;100073.06;4933682;28;20055;-70
2023/04/13 09:24:00;;;;;;;12.30;2.50;;;;;;;10.31;71.90;100071.28;4935161;29;20035;-70
2023/04/13 09:26:25;;;;;;;9.10;2.58;;;;;;;10.35;71.56;100083.44;4933260;28;20081;-76
2023/04/13 09:28:55;;;;;;;12.63;2.60;;;;;;;10.46;72.40;100067.50;4942452;28;20050;-71
2023/04/13 09:31:21;;;;;;;13.30;3.35;;;;;;;10.49;68.72;100084.91;4954617;28;20066;-70
2023/04/13 09:33:51;;;;;;;12.70;3.00;;;;;;;10.38;68.18;100086.00;4930477;29;20105;-77
2023/04/13 09:36:19;;;;;;;12.68;3.10;;;;;;;10.28;69.12;100094.06;4938513;29;20039;-76
2023/04/13 09:38:54;;;;;;;13.65;2.85;;;;;;;10.15;68.53;100098.72;4938842;28;20060;-70
2023/04/13 09:41:46;;;;;;;10.05;2.72;;;;;;;9.95;67.09;100107.00;4948538;28;20043;-76
2023/04/13 09:44:19;;;;;;;10.25;2.25;;;;;;;9.78;68.79;100115.19;4933003;28;20469;-70
2023/04/13 09:46:58;;;;;;;14.50;2.80;;;;;;;9.71;70.55;100122.28;4941508;28;20178;-75
2023/04/13 09:49:24;;;;;;;16.85;2.80;;;;;;;9.68;70.45;100123.25;4934246;29;20046;-71
2023/04/13 09:51:50;;;;;;;11.80;2.40;;;;;;;9.76;70.58;100133.53;4936864;28;20410;-69
2023/04/13 09:54:22;;;;;;;13.02;3.17;;;;;;;9.72;69.24;100137.09;4933882;29;20047;-71
2023/04/13 09:56:55;;;;;;;9.45;2.45;;;;;;;9.64;71.25;100147.72;4916679;28;20066;-70
2023/04/13 09:59:24;;;;;;;13.27;2.67;;;;;;;9.57;70.38;100153.09;4922004;29;20142;-70
2023/04/13 10:01:50;;;;;;;13.77;3.33;;;;;;;9.45;69.49;100159.41;4938119;28;20443;-69
2023/04/13 10:04:16;;;;;;;12.98;2.75;;;;;;;9.46;70.49;100156.78;4920952;29;20066;-78
2023/04/13 10:06:43;;;;;;;13.85;3.03;;;;;;;9.51;71.74;100159.28;4935651;28;20447;-71
2023/04/13 10:09:10;;;;;;;13.52;2.50;;;;;;;9.49;70.86;100161.09;4935148;29;20472;-69
2023/04/13 10:11:40;;;;;;;14.68;3.22;;;;;;;9.49;70.27;100154.09;4941922;28;20102;-70
2023/04/13 10:14:13;;;;;;;11.77;2.73;;;;;;;9.61;70.42;100166.09;4935200;28;20047;-70
2023/04/13 10:17:16;;;;;;;12.10;3.03;;;;;;;9.89;71.15;100160.34;4940483;29;20050;-76
2023/04/13 10:19:45;;;;;;;12.40;2.80;;;;;;;10.01;71.24;100162.72;4954832;28;20074;-76
2023/04/13 10:22:13;;;;;;;13.30;4.15;;;;;;;10.01;69.92;100181.03;4942624;28;20162;-70
2023/04/13 10:24:38;;;;;;;11.43;2.70;;;;;;;10.15;72.47;100187.75;4946102;28;20047;-77
2023/04/13 10:27:18;;;;;;;10.20;2.92;;;;;;;10.28;73.61;100193.59;4942100;28;20586;-76
2023/04/13 10:29:45;;;;;;;12.05;3.38;;;;;;;10.33;71.08;100199.56;4920378;29;20131;-77
2023/04/13 10:32:25;;;;;;;13.35;3.80;;;;;;;10.41;70.62;100200.31;4938096;28;20039;-76
2023/04/13 10:34:51;;;;;;;15.77;3.85;;;;;;;10.48;71.80;100208.91;4928630;29;20039;-74
2023/04/13 10:37:18;;;;;;;13.07;3.92;;;;;;;10.48;69.53;100204.53;4936363;29;20447;-70
2023/04/13 10:39:45;;;;;;;11.45;3.05;;;;;;;10.49;67.69;100215.88;4938130;29;20031;-72
2023/04/13 10:42:12;;;;;;;12.93;4.78;;;;;;;10.51;69.69;100217.56;4921725;28;20051;-74
2023/04/13 10:44:55;;;;;;;17.70;3.78;;;;;;;10.56;70.90;100225.34;4921006;29;20076;-75
2023/04/13 10:47:21;;;;;;;15.57;3.58;;;;;;;10.42;67.78;100222.16;4939362;28;20483;-76
2023/04/13 10:49:48;;;;;;;14.07;4.40;;;;;;;10.30;68.50;100226.72;4946600;29;20081;-70
2023/04/13 10:52:14;;;;;;;14.15;3.83;;;;;;;10.21;68.92;100232.13;4941159;28;20117;-70
2023/04/13 10:54:41;;;;;;;17.35;5.18;;;;;;;10.22;68.74;100241.72;4925606;28;20047;-70
2023/04/13 10:57:09;;;;;;;13.82;4.30;;;;;;;10.25;69.17;100233.78;4930625;28;20115;-70
2023/04/13 10:59:51;;;;;;;18.90;4.43;;;;;;;10.38;68.61;100240.53;4945533;28;20468;-70
2023/04/13 11:02:17;;;;;;;13.35;4.40;;;;;;;10.55;68.80;100234.09;4936561;29;20118;-70
2023/04/13 11:04:44;;;;;;;13.57;4.00;;;;;;;10.57;68.64;100245.38;4924084;29;20131;-70
2023/04/13 11:07:22;;;;;;;12.95;3.42;;;;;;;10.58;67.52;100245.34;4936803;28;20042;-70
2023/04/13 11:09:49;;;;;;;12.80;3.67;;;;;;;10.57;67.46;100253.25;4957639;28;20495;-70
2023/04/13 11:12:15;;;;;;;12.77;3.63;;;;;;;10.56;67.22;100252.38;4941470;29;20404;-75
2023/04/13 11:14:48;;;;;;;11.95;3.40;;;;;;;10.51;67.41;100258.63;4921071;28;20047;-75
2023/04/13 11:17:18;;;;;;;9.95;3.65;;;;;;;10.37;66.08;100251.03;4934757;28;20044;-75
2023/04/13 11:19:51;;;;;;;11.23;2.47;;;;;;;10.34;65.78;100256.34;4944832;29;20484;-75
2023/04/13 11:22:17;;;;;;;13.43;3.17;;;;;;;10.48;67.60;100261.31;4954408;28;20047;-77
2023/04/13 11:24:46;;;;;;;10.30;2.35;;;;;;;10.60;67.84;100258.41;4934570;28;20046;-74
2023/04/13 11:27:20;;;;;;;11.18;2.58;;;;;;;10.73;67.81;100262.50;4940165;29;20043;-75
2023/04/13 11:29:56;;;;;;;11.13;2.85;;;;;;;11.04;67.60;100258.34;4944491;28;20134;-75
2023/04/13 11:32:21;;;;;;;7.65;2.60;;;;;;;11.39;66.85;100268.00;4932798;28;20031;-75
2023/04/13 11:34:50;;;;;;;9.95;2.22;;;;;;;11.60;66.13;100257.88;4933573;29;20484;-76
2023/04/13 11:37:16;;;;;;;11.05;2.47;;;;;;;11.79;66.15;100272.25;4941017;28;20381;-76
2023/04/13 11:39:45;;;;;;;8.70;2.40;;;;;;;11.92;63.12;100264.03;4947856;28;20036;-76
2023/04/13 11:42:12;;;;;;;12.10;2.60;;;;;;;12.05;63.54;100268.13;5184113;23;20091;-76
2023/04/13 11:44:38;;;;;;;11.65;3.05;;;;;;;12.28;64.90;100271.84;4989368;23;20065;-70
2023/04/13 11:47:05;;;;;;;10.35;2.40;;;;;;;12.53;63.54;100276.41;4941799;28;20035;-70
2023/04/13 11:49:31;;;;;;;10.80;3.00;;;;;;;12.72;62.78;100267.06;4941688;28;20082;-70
2023/04/13 11:52:01;;;;;;;11.18;2.30;;;;;;;12.89;62.87;100263.09;4955938;28;20092;-70
2023/04/13 11:54:29;;;;;;;10.23;2.63;;;;;;;13.10;63.04;100267.69;4938928;29;20075;-70
2023/04/13 11:56:54;;;;;;;12.02;2.47;;;;;;;13.18;59.72;100270.91;4957643;28;20061;-71
2023/04/13 11:59:24;;;;;;;10.93;2.33;;;;;;;13.43;59.90;100264.91;4926330;28;20428;-70
2023/04/13 12:01:50;;;;;;;9.48;2.78;;;;;;;13.64;58.96;100270.38;4957293;28;20035;-70
2023/04/13 12:04:17;;;;;;;12.80;2.78;;;;;;;13.66;55.71;100274.69;4972392;28;20117;-71